sensor_id;sensor_type;location;lat;lon;timestamp;pressure;altitude;pressure_sealevel;temperature;humidity
82562;BME280;72228;51.208;10.468;2023-10-08T00:03:03;99483.72;;;17.47;67.11
82562;BME280;72228;51.208;10.468;2023-10-08T00:05:35;99473.00;;;17.49;67.19
82562;BME280;72228;51.208;10.468;2023-10-08T00:08:02;99474.78;;;17.41;67.69
82562;BME280;72228;51.208;10.468;2023-10-08T00:10:34;99476.50;;;17.34;67.95
82562;BME280;72228;51.208;10.468;2023-10-08T00:13:00;99472.78;;;17.30;67.97
82562;BME280;72228;51.208;10.468;2023-10-08T00:15:26;99488.31;;;17.39;67.45
82562;BME280;72228;51.208;10.468;2023-10-08T00:17:52;99484.22;;;17.37;68.10
82562;BME280;72228;51.208;10.468;2023-10-08T00:20:20;99486.09;;;17.45;67.34
82562;BME280;72228;51.208;10.468;2023-10-08T00:23:09;99493.22;;;17.42;67.70
82562;BME280;72228;51.208;10.468;2023-10-08T00:25:35;99498.00;;;17.30;68.53
82562;BME280;72228;51.208;10.468;2023-10-08T00:28:07;99490.28;;;17.27;68.40
82562;BME280;72228;51.208;10.468;2023-10-08T00:30:38;99491.00;;;17.24;69.11
82562;BME280;72228;51.208;10.468;2023-10-08T00:33:04;99492.41;;;17.18;68.99
82562;BME280;72228;51.208;10.468;2023-10-08T00:35:32;99490.19;;;17.23;68.97
82562;BME280;72228;51.208;10.468;2023-10-08T00:38:02;99494.84;;;17.56;68.14
82562;BME280;72228;51.208;10.468;2023-10-08T00:40:37;99490.75;;;17.65;67.86
82562;BME280;72228;51.208;10.468;2023-10-08T00:43:04;99495.91;;;17.76;67.79
82562;BME280;72228;51.208;10.468;2023-10-08T00:45:38;99500.59;;;17.84;67.80
82562;BME280;72228;51.208;10.468;2023-10-08T00:48:09;99488.63;;;17.99;67.11
82562;BME280;72228;51.208;10.468;2023-10-08T00:50:35;99496.66;;;18.01;67.21
82562;BME280;72228;51.208;10.468;2023-10-08T00:53:09;99502.03;;;18.06;67.19
82562;BME280;72228;51.208;10.468;2023-10-08T00:55:48;99499.13;;;18.14;66.67
82562;BME280;72228;51.208;10.468;2023-10-08T00:58:25;99492.13;;;18.08;67.36
82562;BME280;72228;51.208;10.468;2023-10-08T01:00:53;99492.41;;;18.19;66.58
82562;BME280;72228;51.208;10.468;2023-10-08T01:03:26;99498.28;;;18.14;66.72
82562;BME280;72228;51.208;10.468;2023-10-08T01:05:56;99496.31;;;18.14;66.93
82562;BME280;72228;51.208;10.468;2023-10-08T01:08:23;99498.84;;;18.19;66.61
82562;BME280;72228;51.208;10.468;2023-10-08T01:11:31;99488.34;;;18.16;66.78
82562;BME280;72228;51.208;10.468;2023-10-08T01:14:07;99496.28;;;18.27;66.32
82562;BME280;72228;51.208;10.468;2023-10-08T01:16:33;99491.09;;;18.29;66.25
82562;BME280;72228;51.208;10.468;2023-10-08T01:19:00;99497.53;;;18.29;66.08
82562;BME280;72228;51.208;10.468;2023-10-08T01:21:29;99510.53;;;18.21;66.51
82562;BME280;72228;51.208;10.468;2023-10-08T01:24:06;99499.78;;;18.23;66.51
82562;BME280;72228;51.208;10.468;2023-10-08T01:26:36;99514.53;;;18.20;66.71
82562;BME280;72228;51.208;10.468;2023-10-08T01:29:09;99510.06;;;18.19;66.73
82562;BME280;72228;51.208;10.468;2023-10-08T01:31:35;99513.38;;;18.09;67.53
82562;BME280;72228;51.208;10.468;2023-10-08T01:34:02;99510.59;;;18.09;67.29
82562;BME280;72228;51.208;10.468;2023-10-08T01:36:30;99483.22;;;18.06;67.31
82562;BME280;72228;51.208;10.468;2023-10-08T01:38:57;99482.41;;;18.06;67.45
82562;BME280;72228;51.208;10.468;2023-10-08T01:41:23;99494.06;;;18.08;67.20
82562;BME280;72228;51.208;10.468;2023-10-08T01:43:56;99502.97;;;18.10;67.25
82562;BME280;72228;51.208;10.468;2023-10-08T01:46:24;99475.38;;;18.12;67.06
82562;BME280;72228;51.208;10.468;2023-10-08T01:48:52;99488.69;;;18.15;66.96
82562;BME280;72228;51.208;10.468;2023-10-08T01:51:34;99500.63;;;18.12;67.12
82562;BME280;72228;51.208;10.468;2023-10-08T01:54:04;99496.75;;;18.16;67.02
82562;BME280;72228;51.208;10.468;2023-10-08T01:56:40;99492.19;;;18.12;67.25
82562;BME280;72228;51.208;10.468;2023-10-08T01:59:14;99508.22;;;18.11;67.32
82562;BME280;72228;51.208;10.468;2023-10-08T02:01:42;99489.97;;;18.17;67.02
82562;BME280;72228;51.208;10.468;2023-10-08T02:04:09;99508.22;;;18.11;67.43
82562;BME280;72228;51.208;10.468;2023-10-08T02:06:38;99532.91;;;18.06;67.76
82562;BME280;72228;51.208;10.468;2023-10-08T02:09:05;99515.72;;;18.07;67.76
82562;BME280;72228;51.208;10.468;2023-10-08T02:11:52;99524.94;;;18.08;67.95
82562;BME280;72228;51.208;10.468;2023-10-08T02:14:23;99521.31;;;18.07;67.84
82562;BME280;72228;51.208;10.468;2023-10-08T02:16:49;99519.13;;;18.01;68.27
82562;BME280;72228;51.208;10.468;2023-10-08T02:19:20;99533.63;;;18.03;68.24
82562;BME280;72228;51.208;10.468;2023-10-08T02:21:53;99511.88;;;18.00;68.32
82562;BME280;72228;51.208;10.468;2023-10-08T02:24:20;99516.00;;;17.90;68.59
82562;BME280;72228;51.208;10.468;2023-10-08T02:26:56;99517.84;;;17.98;68.47
82562;BME280;72228;51.208;10.468;2023-10-08T02:29:26;99534.22;;;17.96;68.66
82562;BME280;72228;51.208;10.468;2023-10-08T02:31:52;99534.22;;;17.96;68.81
82562;BME280;72228;51.208;10.468;2023-10-08T02:34:21;99538.53;;;17.93;68.92
82562;BME280;72228;51.208;10.468;2023-10-08T02:36:47;99539.59;;;17.89;69.15
82562;BME280;72228;51.208;10.468;2023-10-08T02:39:14;99522.06;;;17.92;68.92
82562;BME280;72228;51.208;10.468;2023-10-08T02:41:46;99526.06;;;17.91;69.13
82562;BME280;72228;51.208;10.468;2023-10-08T02:44:16;99505.94;;;17.89;69.31
82562;BME280;72228;51.208;10.468;2023-10-08T02:46:46;99512.72;;;17.88;69.29
82562;BME280;72228;51.208;10.468;2023-10-08T02:49:16;99512.25;;;17.86;69.41
82562;BME280;72228;51.208;10.468;2023-10-08T02:51:51;99521.84;;;17.85;69.66
82562;BME280;72228;51.208;10.468;2023-10-08T02:54:57;99520.91;;;17.81;69.83
82562;BME280;72228;51.208;10.468;2023-10-08T02:58:00;99541.25;;;17.78;70.06
82562;BME280;72228;51.208;10.468;2023-10-08T03:01:17;99557.59;;;17.76;70.49
82562;BME280;72228;51.208;10.468;2023-10-08T03:03:58;99571.16;;;17.74;70.62
82562;BME280;72228;51.208;10.468;2023-10-08T03:10:23;99577.94;;;17.73;70.72
82562;BME280;72228;51.208;10.468;2023-10-08T03:13:32;99578.59;;;17.69;71.09
82562;BME280;72228;51.208;10.468;2023-10-08T03:17:05;99573.00;;;17.69;71.20
82562;BME280;72228;51.208;10.468;2023-10-08T03:27:50;99546.59;;;17.58;71.57
82562;BME280;72228;51.208;10.468;2023-10-08T03:30:49;99569.19;;;17.16;72.98
82562;BME280;72228;51.208;10.468;2023-10-08T03:33:17;99576.66;;;16.58;74.16
82562;BME280;72228;51.208;10.468;2023-10-08T03:35:49;99566.56;;;16.03;74.88
82562;BME280;72228;51.208;10.468;2023-10-08T03:38:21;99546.03;;;15.70;75.87
82562;BME280;72228;51.208;10.468;2023-10-08T03:40:55;99526.75;;;15.47;77.44
82562;BME280;72228;51.208;10.468;2023-10-08T03:43:35;99536.56;;;15.15;78.78
82562;BME280;72228;51.208;10.468;2023-10-08T03:46:09;99566.66;;;14.92;79.13
82562;BME280;72228;51.208;10.468;2023-10-08T03:48:42;99578.38;;;14.77;79.42
82562;BME280;72228;51.208;10.468;2023-10-08T03:51:13;99597.78;;;14.56;79.66
82562;BME280;72228;51.208;10.468;2023-10-08T03:53:40;99631.22;;;14.39;80.38
82562;BME280;72228;51.208;10.468;2023-10-08T03:56:28;99635.59;;;14.31;80.82
82562;BME280;72228;51.208;10.468;2023-10-08T03:59:00;99611.47;;;14.18;80.85
82562;BME280;72228;51.208;10.468;2023-10-08T04:01:44;99562.09;;;14.10;81.05
82562;BME280;72228;51.208;10.468;2023-10-08T04:04:10;99571.28;;;14.02;80.98
82562;BME280;72228;51.208;10.468;2023-10-08T04:06:40;99597.69;;;13.95;81.36
82562;BME280;72228;51.208;10.468;2023-10-08T04:09:15;99588.59;;;13.81;81.34
82562;BME280;72228;51.208;10.468;2023-10-08T04:11:51;99601.38;;;13.74;81.90
82562;BME280;72228;51.208;10.468;2023-10-08T04:14:22;99598.94;;;13.72;82.23
82562;BME280;72228;51.208;10.468;2023-10-08T04:16:49;99587.56;;;13.60;81.54
82562;BME280;72228;51.208;10.468;2023-10-08T04:19:19;99589.50;;;13.51;81.91
82562;BME280;72228;51.208;10.468;2023-10-08T04:21:47;99595.34;;;13.40;81.71
82562;BME280;72228;51.208;10.468;2023-10-08T04:24:25;99597.78;;;13.33;82.03
82562;BME280;72228;51.208;10.468;2023-10-08T04:26:57;99614.59;;;13.28;82.17
82562;BME280;72228;51.208;10.468;2023-10-08T04:29:23;99628.69;;;13.23;81.75
82562;BME280;72228;51.208;10.468;2023-10-08T04:31:50;99618.16;;;13.20;81.70
82562;BME280;72228;51.208;10.468;2023-10-08T04:34:28;99638.28;;;13.17;81.91
82562;BME280;72228;51.208;10.468;2023-10-08T04:36:54;99643.84;;;13.17;81.64
82562;BME280;72228;51.208;10.468;2023-10-08T04:39:20;99666.25;;;13.12;82.03
82562;BME280;72228;51.208;10.468;2023-10-08T04:42:01;99683.28;;;13.10;81.45
82562;BME280;72228;51.208;10.468;2023-10-08T04:44:37;99690.78;;;13.10;81.20
82562;BME280;72228;51.208;10.468;2023-10-08T04:47:07;99699.28;;;13.05;81.47
82562;BME280;72228;51.208;10.468;2023-10-08T04:49:53;99699.09;;;13.01;81.07
82562;BME280;72228;51.208;10.468;2023-10-08T04:52:19;99701.25;;;13.04;80.83
82562;BME280;72228;51.208;10.468;2023-10-08T04:54:45;99701.53;;;13.03;81.42
82562;BME280;72228;51.208;10.468;2023-10-08T04:57:18;99708.91;;;12.99;80.79
82562;BME280;72228;51.208;10.468;2023-10-08T04:59:48;99709.03;;;12.94;81.23
82562;BME280;72228;51.208;10.468;2023-10-08T05:02:16;99720.44;;;12.92;81.38
82562;BME280;72228;51.208;10.468;2023-10-08T05:05:00;99733.53;;;12.92;81.51
82562;BME280;72228;51.208;10.468;2023-10-08T05:07:35;99726.44;;;12.85;81.06
82562;BME280;72228;51.208;10.468;2023-10-08T05:10:14;99728.53;;;12.80;81.58
82562;BME280;72228;51.208;10.468;2023-10-08T05:12:49;99734.94;;;12.80;81.28
82562;BME280;72228;51.208;10.468;2023-10-08T05:15:42;99742.88;;;12.73;81.48
82562;BME280;72228;51.208;10.468;2023-10-08T05:18:28;99741.06;;;12.69;81.34
82562;BME280;72228;51.208;10.468;2023-10-08T05:21:14;99754.84;;;12.60;81.15
82562;BME280;72228;51.208;10.468;2023-10-08T05:23:53;99752.41;;;12.58;81.06
82562;BME280;72228;51.208;10.468;2023-10-08T05:26:37;99746.00;;;12.58;81.52
82562;BME280;72228;51.208;10.468;2023-10-08T05:29:09;99750.53;;;12.54;81.44
82562;BME280;72228;51.208;10.468;2023-10-08T05:31:53;99761.25;;;12.47;81.68
82562;BME280;72228;51.208;10.468;2023-10-08T05:34:40;99761.06;;;12.43;81.33
82562;BME280;72228;51.208;10.468;2023-10-08T05:37:17;99768.16;;;12.35;81.73
82562;BME280;72228;51.208;10.468;2023-10-08T05:39:58;99765.50;;;12.30;82.23
82562;BME280;72228;51.208;10.468;2023-10-08T05:42:38;99773.66;;;12.27;81.84
82562;BME280;72228;51.208;10.468;2023-10-08T05:45:12;99778.97;;;12.23;81.99
82562;BME280;72228;51.208;10.468;2023-10-08T05:47:38;99775.69;;;12.21;82.04
82562;BME280;72228;51.208;10.468;2023-10-08T05:50:06;99778.81;;;12.20;82.13
82562;BME280;72228;51.208;10.468;2023-10-08T05:52:57;99778.91;;;12.15;81.84
82562;BME280;72228;51.208;10.468;2023-10-08T05:55:28;99780.03;;;12.14;81.85
82562;BME280;72228;51.208;10.468;2023-10-08T05:58:06;99788.06;;;12.15;81.29
82562;BME280;72228;51.208;10.468;2023-10-08T06:00:45;99775.91;;;12.11;81.31
82562;BME280;72228;51.208;10.468;2023-10-08T06:03:30;99773.44;;;12.10;81.88
82562;BME280;72228;51.208;10.468;2023-10-08T06:06:25;99786.59;;;12.04;80.90
82562;BME280;72228;51.208;10.468;2023-10-08T06:09:03;99780.53;;;12.02;81.38
82562;BME280;72228;51.208;10.468;2023-10-08T06:11:37;99795.84;;;11.99;81.27
82562;BME280;72228;51.208;10.468;2023-10-08T06:14:11;99817.56;;;11.97;81.04
82562;BME280;72228;51.208;10.468;2023-10-08T06:16:56;99815.19;;;11.91;81.85
82562;BME280;72228;51.208;10.468;2023-10-08T06:19:43;99840.78;;;11.88;81.43
82562;BME280;72228;51.208;10.468;2023-10-08T06:22:09;99844.56;;;11.78;81.21
82562;BME280;72228;51.208;10.468;2023-10-08T06:24:34;99856.66;;;11.68;81.70
82562;BME280;72228;51.208;10.468;2023-10-08T06:27:04;99868.97;;;11.62;81.74
82562;BME280;72228;51.208;10.468;2023-10-08T06:29:32;99877.47;;;11.52;82.24
82562;BME280;72228;51.208;10.468;2023-10-08T06:31:58;99895.88;;;11.48;82.16
82562;BME280;72228;51.208;10.468;2023-10-08T06:34:30;99905.09;;;11.43;82.90
82562;BME280;72228;51.208;10.468;2023-10-08T06:36:58;99906.31;;;11.37;83.17
82562;BME280;72228;51.208;10.468;2023-10-08T06:39:25;99915.75;;;11.36;83.44
82562;BME280;72228;51.208;10.468;2023-10-08T06:41:54;99930.84;;;11.30;83.42
82562;BME280;72228;51.208;10.468;2023-10-08T06:44:27;99937.78;;;11.27;83.15
82562;BME280;72228;51.208;10.468;2023-10-08T06:46:53;99947.31;;;11.21;83.74
82562;BME280;72228;51.208;10.468;2023-10-08T06:49:21;99945.44;;;11.17;83.35
82562;BME280;72228;51.208;10.468;2023-10-08T06:51:50;99951.38;;;11.10;83.93
82562;BME280;72228;51.208;10.468;2023-10-08T06:54:17;99946.41;;;11.07;83.98
82562;BME280;72228;51.208;10.468;2023-10-08T06:56:46;99951.50;;;11.00;83.81
82562;BME280;72228;51.208;10.468;2023-10-08T06:59:15;99952.66;;;10.94;84.52
82562;BME280;72228;51.208;10.468;2023-10-08T07:01:42;99951.66;;;10.85;84.49
82562;BME280;72228;51.208;10.468;2023-10-08T07:04:12;99947.00;;;10.80;85.06
82562;BME280;72228;51.208;10.468;2023-10-08T07:06:42;99952.88;;;10.73;85.50
82562;BME280;72228;51.208;10.468;2023-10-08T07:09:10;99950.72;;;10.70;85.36
82562;BME280;72228;51.208;10.468;2023-10-08T07:11:57;99958.22;;;10.70;85.50
82562;BME280;72228;51.208;10.468;2023-10-08T07:14:24;99951.84;;;10.69;85.68
82562;BME280;72228;51.208;10.468;2023-10-08T07:16:56;99957.38;;;10.69;85.26
82562;BME280;72228;51.208;10.468;2023-10-08T07:19:29;99955.97;;;10.72;86.02
82562;BME280;72228;51.208;10.468;2023-10-08T07:22:03;99952.06;;;10.73;85.43
82562;BME280;72228;51.208;10.468;2023-10-08T07:24:34;99957.09;;;10.71;85.06
82562;BME280;72228;51.208;10.468;2023-10-08T07:27:04;99972.91;;;10.70;85.36
82562;BME280;72228;51.208;10.468;2023-10-08T07:29:35;99968.44;;;10.74;85.95
82562;BME280;72228;51.208;10.468;2023-10-08T07:32:02;99967.88;;;10.72;86.12
82562;BME280;72228;51.208;10.468;2023-10-08T07:34:38;99966.47;;;10.75;84.67
82562;BME280;72228;51.208;10.468;2023-10-08T07:37:04;99975.69;;;10.70;84.74
82562;BME280;72228;51.208;10.468;2023-10-08T07:39:31;99971.84;;;10.66;84.23
82562;BME280;72228;51.208;10.468;2023-10-08T07:41:59;99983.75;;;10.67;84.41
82562;BME280;72228;51.208;10.468;2023-10-08T07:44:26;99996.75;;;10.71;84.78
82562;BME280;72228;51.208;10.468;2023-10-08T07:46:55;100013.44;;;10.66;84.81
82562;BME280;72228;51.208;10.468;2023-10-08T07:49:24;100017.22;;;10.76;84.27
82562;BME280;72228;51.208;10.468;2023-10-08T07:51:57;100043.59;;;10.44;82.19
82562;BME280;72228;51.208;10.468;2023-10-08T07:54:25;100052.06;;;10.18;81.76
82562;BME280;72228;51.208;10.468;2023-10-08T07:56:54;100072.72;;;9.97;81.67
82562;BME280;72228;51.208;10.468;2023-10-08T07:59:35;100067.34;;;9.66;82.88
82562;BME280;72228;51.208;10.468;2023-10-08T08:02:08;100071.91;;;9.42;82.76
82562;BME280;72228;51.208;10.468;2023-10-08T08:04:38;100076.34;;;9.38;82.36
82562;BME280;72228;51.208;10.468;2023-10-08T08:07:06;100083.88;;;9.17;81.57
82562;BME280;72228;51.208;10.468;2023-10-08T08:09:32;100086.94;;;9.10;82.27
82562;BME280;72228;51.208;10.468;2023-10-08T08:12:06;100085.84;;;8.91;82.44
82562;BME280;72228;51.208;10.468;2023-10-08T08:14:36;100091.97;;;8.93;83.42
82562;BME280;72228;51.208;10.468;2023-10-08T08:17:05;100105.78;;;8.78;83.67
82562;BME280;72228;51.208;10.468;2023-10-08T08:19:42;100111.06;;;8.74;83.81
82562;BME280;72228;51.208;10.468;2023-10-08T08:22:13;100121.28;;;8.64;83.67
82562;BME280;72228;51.208;10.468;2023-10-08T08:24:53;100116.00;;;8.67;85.38
82562;BME280;72228;51.208;10.468;2023-10-08T08:27:28;100117.97;;;8.62;85.54
82562;BME280;72228;51.208;10.468;2023-10-08T08:30:03;100122.94;;;8.59;84.63
82562;BME280;72228;51.208;10.468;2023-10-08T08:32:36;100123.50;;;8.51;82.66
82562;BME280;72228;51.208;10.468;2023-10-08T08:35:08;100130.13;;;8.55;83.72
82562;BME280;72228;51.208;10.468;2023-10-08T08:37:35;100127.91;;;8.52;83.35
82562;BME280;72228;51.208;10.468;2023-10-08T08:40:07;100124.03;;;8.43;81.70
82562;BME280;72228;51.208;10.468;2023-10-08T08:42:49;100117.66;;;8.43;80.28
82562;BME280;72228;51.208;10.468;2023-10-08T08:45:20;100114.66;;;8.44;81.38
82562;BME280;72228;51.208;10.468;2023-10-08T08:47:46;100122.94;;;8.39;81.92
82562;BME280;72228;51.208;10.468;2023-10-08T08:50:12;100112.13;;;8.27;82.92
82562;BME280;72228;51.208;10.468;2023-10-08T08:52:39;100115.44;;;8.19;81.63
82562;BME280;72228;51.208;10.468;2023-10-08T08:55:06;100122.31;;;8.17;81.94
82562;BME280;72228;51.208;10.468;2023-10-08T08:57:42;100114.03;;;8.22;82.01
82562;BME280;72228;51.208;10.468;2023-10-08T09:00:11;100115.16;;;8.21;81.38
82562;BME280;72228;51.208;10.468;2023-10-08T09:02:38;100121.75;;;8.10;80.59
82562;BME280;72228;51.208;10.468;2023-10-08T09:05:05;100134.16;;;8.02;81.11
82562;BME280;72228;51.208;10.468;2023-10-08T09:07:58;100134.97;;;7.97;81.60
82562;BME280;72228;51.208;10.468;2023-10-08T09:10:29;100124.22;;;8.06;82.29
82562;BME280;72228;51.208;10.468;2023-10-08T09:12:58;100137.75;;;8.02;80.78
82562;BME280;72228;51.208;10.468;2023-10-08T09:15:28;100142.44;;;7.97;79.70
82562;BME280;72228;51.208;10.468;2023-10-08T09:17:54;100149.31;;;7.94;80.38
82562;BME280;72228;51.208;10.468;2023-10-08T09:20:22;100156.50;;;8.00;81.02
82562;BME280;72228;51.208;10.468;2023-10-08T09:23:07;100164.25;;;7.98;80.51
82562;BME280;72228;51.208;10.468;2023-10-08T09:25:33;100170.59;;;7.99;78.34
82562;BME280;72228;51.208;10.468;2023-10-08T09:27:59;100175.84;;;8.05;78.99
82562;BME280;72228;51.208;10.468;2023-10-08T09:30:25;100174.25;;;8.15;79.78
82562;BME280;72228;51.208;10.468;2023-10-08T09:32:53;100156.59;;;8.31;78.42
82562;BME280;72228;51.208;10.468;2023-10-08T09:35:19;100152.75;;;8.42;77.39
82562;BME280;72228;51.208;10.468;2023-10-08T09:37:45;100145.31;;;8.48;77.25
82562;BME280;72228;51.208;10.468;2023-10-08T09:40:11;100162.44;;;8.55;77.18
82562;BME280;72228;51.208;10.468;2023-10-08T09:42:38;100160.53;;;8.66;78.76
82562;BME280;72228;51.208;10.468;2023-10-08T09:45:06;100157.75;;;8.66;78.10
82562;BME280;72228;51.208;10.468;2023-10-08T09:47:42;100164.41;;;8.90;76.19
82562;BME280;72228;51.208;10.468;2023-10-08T09:50:10;100167.44;;;9.09;75.96
82562;BME280;72228;51.208;10.468;2023-10-08T09:55:26;100181.50;;;9.48;76.68
82562;BME280;72228;51.208;10.468;2023-10-08T09:57:52;100185.91;;;9.39;74.08
82562;BME280;72228;51.208;10.468;2023-10-08T10:00:21;100201.69;;;9.44;75.31
82562;BME280;72228;51.208;10.468;2023-10-08T10:02:58;100202.53;;;9.39;74.62
82562;BME280;72228;51.208;10.468;2023-10-08T10:05:32;100200.03;;;9.53;74.68
82562;BME280;72228;51.208;10.468;2023-10-08T10:07:59;100198.56;;;9.76;74.70
82562;BME280;72228;51.208;10.468;2023-10-08T10:10:29;100204.66;;;9.83;72.32
82562;BME280;72228;51.208;10.468;2023-10-08T10:13:04;100209.63;;;9.76;73.84
82562;BME280;72228;51.208;10.468;2023-10-08T10:15:32;100214.53;;;9.99;73.44
82562;BME280;72228;51.208;10.468;2023-10-08T10:18:05;100216.50;;;9.93;73.56
82562;BME280;72228;51.208;10.468;2023-10-08T10:20:33;100208.44;;;10.02;72.60
82562;BME280;72228;51.208;10.468;2023-10-08T10:22:59;100220.88;;;10.10;72.35
82562;BME280;72228;51.208;10.468;2023-10-08T10:25:34;100225.59;;;10.09;72.54
82562;BME280;72228;51.208;10.468;2023-10-08T10:30:34;100240.06;;;9.91;72.74
82562;BME280;72228;51.208;10.468;2023-10-08T10:33:00;100236.72;;;9.94;71.59
82562;BME280;72228;51.208;10.468;2023-10-08T10:35:27;100235.06;;;9.88;72.13
82562;BME280;72228;51.208;10.468;2023-10-08T10:37:53;100240.59;;;10.03;71.39
82562;BME280;72228;51.208;10.468;2023-10-08T10:40:24;100234.94;;;10.34;70.49
82562;BME280;72228;51.208;10.468;2023-10-08T10:43:06;100193.34;;;10.34;70.24
82562;BME280;72228;51.208;10.468;2023-10-08T10:45:35;100190.25;;;10.45;70.04
82562;BME280;72228;51.208;10.468;2023-10-08T10:48:09;100208.22;;;10.48;69.04
82562;BME280;72228;51.208;10.468;2023-10-08T10:50:45;100207.59;;;10.61;70.74
82562;BME280;72228;51.208;10.468;2023-10-08T10:53:32;100209.09;;;10.88;69.76
82562;BME280;72228;51.208;10.468;2023-10-08T10:56:01;100192.84;;;11.05;67.47
82562;BME280;72228;51.208;10.468;2023-10-08T10:58:35;100198.00;;;11.46;67.47
82562;BME280;72228;51.208;10.468;2023-10-08T11:01:05;100200.66;;;10.98;66.33
82562;BME280;72228;51.208;10.468;2023-10-08T11:03:50;100192.63;;;11.31;67.38
82562;BME280;72228;51.208;10.468;2023-10-08T11:06:19;100189.94;;;11.49;67.79
82562;BME280;72228;51.208;10.468;2023-10-08T11:08:52;100213.19;;;11.30;67.22
82562;BME280;72228;51.208;10.468;2023-10-08T11:11:28;100222.03;;;11.32;67.41
82562;BME280;72228;51.208;10.468;2023-10-08T11:13:59;100227.28;;;11.62;66.94
82562;BME280;72228;51.208;10.468;2023-10-08T11:16:28;100228.97;;;11.58;67.63
82562;BME280;72228;51.208;10.468;2023-10-08T11:18:56;100224.59;;;11.52;66.98
82562;BME280;72228;51.208;10.468;2023-10-08T11:21:32;100228.91;;;11.10;68.48
82562;BME280;72228;51.208;10.468;2023-10-08T11:23:59;100242.59;;;10.91;69.65
82562;BME280;72228;51.208;10.468;2023-10-08T11:26:35;100236.00;;;11.21;67.76
82562;BME280;72228;51.208;10.468;2023-10-08T11:29:05;100230.28;;;11.42;67.10
82562;BME280;72228;51.208;10.468;2023-10-08T11:31:40;100244.00;;;11.57;67.84
82562;BME280;72228;51.208;10.468;2023-10-08T11:34:06;100233.91;;;11.66;67.84
82562;BME280;72228;51.208;10.468;2023-10-08T11:36:36;100242.81;;;11.63;66.63
82562;BME280;72228;51.208;10.468;2023-10-08T11:39:14;100244.97;;;11.71;66.48
82562;BME280;72228;51.208;10.468;2023-10-08T11:42:00;100247.81;;;11.66;68.16
82562;BME280;72228;51.208;10.468;2023-10-08T11:44:33;100242.44;;;11.46;67.64
82562;BME280;72228;51.208;10.468;2023-10-08T11:47:05;100232.94;;;11.81;68.36
82562;BME280;72228;51.208;10.468;2023-10-08T11:49:41;100211.44;;;11.92;66.18
82562;BME280;72228;51.208;10.468;2023-10-08T11:52:16;100190.09;;;11.58;66.98
82562;BME280;72228;51.208;10.468;2023-10-08T11:54:46;100178.09;;;11.92;66.30
82562;BME280;72228;51.208;10.468;2023-10-08T11:57:14;100182.56;;;12.30;64.61
82562;BME280;72228;51.208;10.468;2023-10-08T11:59:45;100192.44;;;12.42;65.26
82562;BME280;72228;51.208;10.468;2023-10-08T12:02:30;100179.50;;;12.51;62.58
82562;BME280;72228;51.208;10.468;2023-10-08T12:04:57;100181.44;;;12.31;64.62
82562;BME280;72228;51.208;10.468;2023-10-08T12:07:23;100177.41;;;11.76;64.25
82562;BME280;72228;51.208;10.468;2023-10-08T12:09:53;100175.44;;;11.76;64.80
82562;BME280;72228;51.208;10.468;2023-10-08T12:12:19;100163.84;;;12.17;64.19
82562;BME280;72228;51.208;10.468;2023-10-08T12:14:48;100154.84;;;12.25;64.18
82562;BME280;72228;51.208;10.468;2023-10-08T12:17:15;100177.31;;;12.29;64.15
82562;BME280;72228;51.208;10.468;2023-10-08T12:19:43;100168.72;;;12.25;64.92
82562;BME280;72228;51.208;10.468;2023-10-08T12:22:09;100164.69;;;12.18;64.68
82562;BME280;72228;51.208;10.468;2023-10-08T12:24:35;100157.00;;;12.66;63.29
82562;BME280;72228;51.208;10.468;2023-10-08T12:27:01;100156.34;;;12.74;62.33
82562;BME280;72228;51.208;10.468;2023-10-08T12:29:28;100154.38;;;12.18;65.22
82562;BME280;72228;51.208;10.468;2023-10-08T12:31:54;100166.56;;;12.60;62.69
82562;BME280;72228;51.208;10.468;2023-10-08T12:34:20;100164.78;;;12.69;62.26
82562;BME280;72228;51.208;10.468;2023-10-08T12:36:48;100162.44;;;12.20;62.01
82562;BME280;72228;51.208;10.468;2023-10-08T12:39:14;100159.06;;;12.42;63.38
82562;BME280;72228;51.208;10.468;2023-10-08T12:41:44;100177.53;;;12.14;63.76
82562;BME280;72228;51.208;10.468;2023-10-08T12:44:11;100177.69;;;12.22;64.17
82562;BME280;72228;51.208;10.468;2023-10-08T12:46:37;100162.81;;;12.51;61.17
82562;BME280;72228;51.208;10.468;2023-10-08T12:49:03;100167.94;;;12.44;62.39
82562;BME280;72228;51.208;10.468;2023-10-08T12:51:30;100177.03;;;12.68;62.68
82562;BME280;72228;51.208;10.468;2023-10-08T12:54:01;100166.88;;;12.58;60.27
82562;BME280;72228;51.208;10.468;2023-10-08T12:56:33;100160.53;;;12.72;61.23
82562;BME280;72228;51.208;10.468;2023-10-08T12:59:05;100168.78;;;12.96;59.66
82562;BME280;72228;51.208;10.468;2023-10-08T13:01:35;100155.72;;;12.77;61.02
82562;BME280;72228;51.208;10.468;2023-10-08T13:04:02;100150.19;;;12.58;61.17
82562;BME280;72228;51.208;10.468;2023-10-08T13:06:34;100147.59;;;12.05;62.93
82562;BME280;72228;51.208;10.468;2023-10-08T13:09:03;100146.78;;;12.61;62.83
82562;BME280;72228;51.208;10.468;2023-10-08T13:11:35;100143.19;;;12.42;61.09
82562;BME280;72228;51.208;10.468;2023-10-08T13:14:05;100127.94;;;12.21;62.73
82562;BME280;72228;51.208;10.468;2023-10-08T13:16:31;100125.16;;;12.40;63.77
82562;BME280;72228;51.208;10.468;2023-10-08T13:18:58;100125.16;;;12.58;61.44
82562;BME280;72228;51.208;10.468;2023-10-08T13:21:25;100128.06;;;12.67;60.65
82562;BME280;72228;51.208;10.468;2023-10-08T13:23:52;100127.25;;;12.99;60.53
82562;BME280;72228;51.208;10.468;2023-10-08T13:26:18;100123.66;;;12.99;57.77
82562;BME280;72228;51.208;10.468;2023-10-08T13:28:48;100115.41;;;13.07;58.54
82562;BME280;72228;51.208;10.468;2023-10-08T13:31:14;100116.63;;;13.48;56.39
82562;BME280;72228;51.208;10.468;2023-10-08T13:33:43;100110.22;;;13.88;55.26